sensor_id;sensor_type;location;lat;lon;timestamp;temperature;humidity
4279;DHT22;2153;47.744;10.580;2023-02-12T00:01:13;-1.60;99.90
4279;DHT22;2153;47.744;10.580;2023-02-12T00:03:40;-1.60;99.90
4279;DHT22;2153;47.744;10.580;2023-02-12T00:06:09;-1.50;99.90
4279;DHT22;2153;47.744;10.580;2023-02-12T00:08:36;-1.50;99.90
4279;DHT22;2153;47.744;10.580;2023-02-12T00:11:09;-1.40;99.90
4279;DHT22;2153;47.744;10.580;2023-02-12T00:13:36;-1.40;99.90
4279;DHT22;2153;47.744;10.580;2023-02-12T00:16:05;-1.40;99.90
4279;DHT22;2153;47.744;10.580;2023-02-12T00:18:32;-1.50;99.90
4279;DHT22;2153;47.744;10.580;2023-02-12T00:20:59;-1.60;99.90
4279;DHT22;2153;47.744;10.580;2023-02-12T00:23:28;-1.60;99.90
4279;DHT22;2153;47.744;10.580;2023-02-12T00:25:55;-1.70;99.90
4279;DHT22;2153;47.744;10.580;2023-02-12T00:28:21;-1.60;99.90
4279;DHT22;2153;47.744;10.580;2023-02-12T00:30:48;-1.60;99.90
4279;DHT22;2153;47.744;10.580;2023-02-12T00:33:15;-1.50;99.90
4279;DHT22;2153;47.744;10.580;2023-02-12T00:35:42;-1.50;99.90
4279;DHT22;2153;47.744;10.580;2023-02-12T00:38:08;-1.40;99.90
4279;DHT22;2153;47.744;10.580;2023-02-12T00:40:37;-1.40;99.90
4279;DHT22;2153;47.744;10.580;2023-02-12T00:43:03;-1.40;99.90
4279;DHT22;2153;47.744;10.580;2023-02-12T00:45:31;-1.30;99.90
4279;DHT22;2153;47.744;10.580;2023-02-12T00:47:57;-1.30;99.90
4279;DHT22;2153;47.744;10.580;2023-02-12T00:50:24;-1.30;99.90
4279;DHT22;2153;47.744;10.580;2023-02-12T00:52:51;-1.20;99.90
4279;DHT22;2153;47.744;10.580;2023-02-12T00:55:18;-1.20;99.90
4279;DHT22;2153;47.744;10.580;2023-02-12T00:57:46;-1.10;99.90
4279;DHT22;2153;47.744;10.580;2023-02-12T01:00:14;-1.10;99.90
4279;DHT22;2153;47.744;10.580;2023-02-12T01:02:41;-1.10;99.90
4279;DHT22;2153;47.744;10.580;2023-02-12T01:05:08;-1.10;99.90
4279;DHT22;2153;47.744;10.580;2023-02-12T01:07:35;-1.20;99.90
4279;DHT22;2153;47.744;10.580;2023-02-12T01:10:04;-1.20;99.90
4279;DHT22;2153;47.744;10.580;2023-02-12T01:12:31;-1.20;99.90
4279;DHT22;2153;47.744;10.580;2023-02-12T01:14:59;-1.10;99.90
4279;DHT22;2153;47.744;10.580;2023-02-12T01:17:26;-1.10;99.90
4279;DHT22;2153;47.744;10.580;2023-02-12T01:19:56;-1.10;99.90
4279;DHT22;2153;47.744;10.580;2023-02-12T01:22:23;-1.10;99.90
4279;DHT22;2153;47.744;10.580;2023-02-12T01:24:50;-1.00;99.90
4279;DHT22;2153;47.744;10.580;2023-02-12T01:27:16;-1.10;99.90
4279;DHT22;2153;47.744;10.580;2023-02-12T01:29:43;-1.00;99.90
4279;DHT22;2153;47.744;10.580;2023-02-12T01:32:11;-1.00;99.90
4279;DHT22;2153;47.744;10.580;2023-02-12T01:34:38;-1.00;99.90
4279;DHT22;2153;47.744;10.580;2023-02-12T01:37:05;-1.00;99.90
4279;DHT22;2153;47.744;10.580;2023-02-12T01:39:32;-1.00;99.90
4279;DHT22;2153;47.744;10.580;2023-02-12T01:42:00;-0.90;99.90
4279;DHT22;2153;47.744;10.580;2023-02-12T01:44:29;-1.00;99.90
4279;DHT22;2153;47.744;10.580;2023-02-12T01:46:58;-1.00;99.90
4279;DHT22;2153;47.744;10.580;2023-02-12T01:49:29;-1.00;99.90
4279;DHT22;2153;47.744;10.580;2023-02-12T01:52:02;-1.00;99.90
4279;DHT22;2153;47.744;10.580;2023-02-12T01:54:30;-1.00;99.90
4279;DHT22;2153;47.744;10.580;2023-02-12T01:56:59;-0.90;99.90
4279;DHT22;2153;47.744;10.580;2023-02-12T01:59:27;-1.00;99.90
4279;DHT22;2153;47.744;10.580;2023-02-12T02:01:54;-1.00;99.90
4279;DHT22;2153;47.744;10.580;2023-02-12T02:04:24;-1.00;99.90
4279;DHT22;2153;47.744;10.580;2023-02-12T02:06:56;-0.90;99.90
4279;DHT22;2153;47.744;10.580;2023-02-12T02:09:24;-0.90;99.90
4279;DHT22;2153;47.744;10.580;2023-02-12T02:11:51;-0.90;99.90
4279;DHT22;2153;47.744;10.580;2023-02-12T02:14:36;-0.90;99.90
4279;DHT22;2153;47.744;10.580;2023-02-12T02:17:23;-0.90;99.90
4279;DHT22;2153;47.744;10.580;2023-02-12T02:20:21;-0.90;99.90
4279;DHT22;2153;47.744;10.580;2023-02-12T02:23:07;-1.00;99.90
4279;DHT22;2153;47.744;10.580;2023-02-12T02:25:56;-1.00;99.90
4279;DHT22;2153;47.744;10.580;2023-02-12T02:28:39;-1.00;99.90
4279;DHT22;2153;47.744;10.580;2023-02-12T02:31:17;-1.10;99.90
4279;DHT22;2153;47.744;10.580;2023-02-12T02:33:52;-1.10;99.90
4279;DHT22;2153;47.744;10.580;2023-02-12T02:36:26;-1.10;99.90
4279;DHT22;2153;47.744;10.580;2023-02-12T02:39:02;-1.20;99.90
4279;DHT22;2153;47.744;10.580;2023-02-12T02:41:34;-1.20;99.90
4279;DHT22;2153;47.744;10.580;2023-02-12T02:44:08;-1.20;99.90
4279;DHT22;2153;47.744;10.580;2023-02-12T02:46:39;-1.20;99.90
4279;DHT22;2153;47.744;10.580;2023-02-12T02:49:12;-1.20;99.90
4279;DHT22;2153;47.744;10.580;2023-02-12T02:51:43;-1.20;99.90
4279;DHT22;2153;47.744;10.580;2023-02-12T02:54:14;-1.20;99.90
4279;DHT22;2153;47.744;10.580;2023-02-12T02:56:45;-1.20;99.90
4279;DHT22;2153;47.744;10.580;2023-02-12T02:59:16;-1.30;99.90
4279;DHT22;2153;47.744;10.580;2023-02-12T03:01:49;-1.30;99.90
4279;DHT22;2153;47.744;10.580;2023-02-12T03:04:18;-1.30;99.90
4279;DHT22;2153;47.744;10.580;2023-02-12T03:06:51;-1.30;99.90
4279;DHT22;2153;47.744;10.580;2023-02-12T03:09:22;-1.30;99.90
4279;DHT22;2153;47.744;10.580;2023-02-12T03:11:50;-1.30;99.90
4279;DHT22;2153;47.744;10.580;2023-02-12T03:14:20;-1.40;99.90
4279;DHT22;2153;47.744;10.580;2023-02-12T03:16:54;-1.40;99.90
4279;DHT22;2153;47.744;10.580;2023-02-12T03:19:24;-1.50;99.90
4279;DHT22;2153;47.744;10.580;2023-02-12T03:21:57;-1.60;99.90
4279;DHT22;2153;47.744;10.580;2023-02-12T03:24:30;-1.60;99.90
4279;DHT22;2153;47.744;10.580;2023-02-12T03:27:04;-1.60;99.90
4279;DHT22;2153;47.744;10.580;2023-02-12T03:29:32;-1.70;99.90
4279;DHT22;2153;47.744;10.580;2023-02-12T03:32:11;-1.70;99.90
4279;DHT22;2153;47.744;10.580;2023-02-12T03:34:46;-1.70;99.90
4279;DHT22;2153;47.744;10.580;2023-02-12T03:37:20;-1.70;99.90
4279;DHT22;2153;47.744;10.580;2023-02-12T03:39:53;-1.70;99.90
4279;DHT22;2153;47.744;10.580;2023-02-12T03:42:31;-1.70;99.90
4279;DHT22;2153;47.744;10.580;2023-02-12T03:45:02;-1.70;99.90
4279;DHT22;2153;47.744;10.580;2023-02-12T03:47:38;-1.70;99.90
4279;DHT22;2153;47.744;10.580;2023-02-12T03:50:11;-1.70;99.90
4279;DHT22;2153;47.744;10.580;2023-02-12T03:52:39;-1.70;99.90
4279;DHT22;2153;47.744;10.580;2023-02-12T03:55:06;-1.70;99.90
4279;DHT22;2153;47.744;10.580;2023-02-12T03:57:38;-1.70;99.90
4279;DHT22;2153;47.744;10.580;2023-02-12T04:00:09;-1.70;99.90
4279;DHT22;2153;47.744;10.580;2023-02-12T04:02:37;-1.70;99.90
4279;DHT22;2153;47.744;10.580;2023-02-12T04:05:04;-1.70;99.90
4279;DHT22;2153;47.744;10.580;2023-02-12T04:07:32;-1.70;99.90
4279;DHT22;2153;47.744;10.580;2023-02-12T04:09:59;-1.60;99.90
4279;DHT22;2153;47.744;10.580;2023-02-12T04:12:38;-1.60;99.90
4279;DHT22;2153;47.744;10.580;2023-02-12T04:15:35;-1.60;99.90
4279;DHT22;2153;47.744;10.580;2023-02-12T04:18:11;-1.60;99.90
4279;DHT22;2153;47.744;10.580;2023-02-12T04:20:51;-1.60;99.90
4279;DHT22;2153;47.744;10.580;2023-02-12T04:23:29;-1.60;99.90
4279;DHT22;2153;47.744;10.580;2023-02-12T04:26:05;-1.60;99.90
4279;DHT22;2153;47.744;10.580;2023-02-12T04:28:39;-1.60;99.90
4279;DHT22;2153;47.744;10.580;2023-02-12T04:31:14;-1.70;99.90
4279;DHT22;2153;47.744;10.580;2023-02-12T04:33:54;-1.70;99.90
4279;DHT22;2153;47.744;10.580;2023-02-12T04:36:26;-1.70;99.90
4279;DHT22;2153;47.744;10.580;2023-02-12T04:38:56;-1.70;99.90
4279;DHT22;2153;47.744;10.580;2023-02-12T04:41:25;-1.70;99.90
4279;DHT22;2153;47.744;10.580;2023-02-12T04:43:52;-1.70;99.90
4279;DHT22;2153;47.744;10.580;2023-02-12T04:46:19;-1.60;99.90
4279;DHT22;2153;47.744;10.580;2023-02-12T04:48:52;-1.70;99.90
4279;DHT22;2153;47.744;10.580;2023-02-12T04:51:19;-1.70;99.90
4279;DHT22;2153;47.744;10.580;2023-02-12T04:53:46;-1.70;99.90
4279;DHT22;2153;47.744;10.580;2023-02-12T04:56:13;-1.70;99.90
4279;DHT22;2153;47.744;10.580;2023-02-12T04:58:40;-1.80;99.90
4279;DHT22;2153;47.744;10.580;2023-02-12T05:01:08;-1.80;99.90
4279;DHT22;2153;47.744;10.580;2023-02-12T05:03:35;-1.80;99.90
4279;DHT22;2153;47.744;10.580;2023-02-12T05:06:05;-1.90;99.90
4279;DHT22;2153;47.744;10.580;2023-02-12T05:08:32;-1.90;99.90
4279;DHT22;2153;47.744;10.580;2023-02-12T05:11:03;-1.90;99.90
4279;DHT22;2153;47.744;10.580;2023-02-12T05:13:30;-1.90;99.90
4279;DHT22;2153;47.744;10.580;2023-02-12T05:15:57;-2.00;99.90
4279;DHT22;2153;47.744;10.580;2023-02-12T05:18:24;-2.00;99.90
4279;DHT22;2153;47.744;10.580;2023-02-12T05:20:55;-2.00;99.90
4279;DHT22;2153;47.744;10.580;2023-02-12T05:23:25;-2.00;99.90
4279;DHT22;2153;47.744;10.580;2023-02-12T05:25:52;-2.10;99.90
4279;DHT22;2153;47.744;10.580;2023-02-12T05:28:19;-2.20;99.90
4279;DHT22;2153;47.744;10.580;2023-02-12T05:30:46;-2.20;99.90
4279;DHT22;2153;47.744;10.580;2023-02-12T05:33:12;-2.30;99.90
4279;DHT22;2153;47.744;10.580;2023-02-12T05:35:39;-2.30;99.90
4279;DHT22;2153;47.744;10.580;2023-02-12T05:38:06;-2.30;99.90
4279;DHT22;2153;47.744;10.580;2023-02-12T05:40:34;-2.30;99.90
4279;DHT22;2153;47.744;10.580;2023-02-12T05:43:01;-2.30;99.90
4279;DHT22;2153;47.744;10.580;2023-02-12T05:45:28;-2.40;99.90
4279;DHT22;2153;47.744;10.580;2023-02-12T05:47:55;-2.40;99.90
4279;DHT22;2153;47.744;10.580;2023-02-12T05:50:22;-2.40;99.90
4279;DHT22;2153;47.744;10.580;2023-02-12T05:52:49;-2.50;99.90
4279;DHT22;2153;47.744;10.580;2023-02-12T05:55:16;-2.50;99.90
4279;DHT22;2153;47.744;10.580;2023-02-12T05:57:44;-2.50;99.90
4279;DHT22;2153;47.744;10.580;2023-02-12T06:00:11;-2.60;99.90
4279;DHT22;2153;47.744;10.580;2023-02-12T06:02:38;-2.60;99.90
4279;DHT22;2153;47.744;10.580;2023-02-12T06:05:05;-2.60;99.90
4279;DHT22;2153;47.744;10.580;2023-02-12T06:07:32;-2.60;99.90
4279;DHT22;2153;47.744;10.580;2023-02-12T06:09:59;-2.70;99.90
4279;DHT22;2153;47.744;10.580;2023-02-12T06:12:26;-2.70;99.90
4279;DHT22;2153;47.744;10.580;2023-02-12T06:14:54;-2.70;99.90
4279;DHT22;2153;47.744;10.580;2023-02-12T06:17:21;-2.70;99.90
4279;DHT22;2153;47.744;10.580;2023-02-12T06:19:47;-2.80;99.90
4279;DHT22;2153;47.744;10.580;2023-02-12T06:22:14;-2.80;99.90
4279;DHT22;2153;47.744;10.580;2023-02-12T06:24:41;-2.80;99.90
4279;DHT22;2153;47.744;10.580;2023-02-12T06:27:08;-2.90;99.90
4279;DHT22;2153;47.744;10.580;2023-02-12T06:29:34;-2.90;99.90
4279;DHT22;2153;47.744;10.580;2023-02-12T06:32:03;-2.90;99.90
4279;DHT22;2153;47.744;10.580;2023-02-12T06:34:31;-2.90;99.90
4279;DHT22;2153;47.744;10.580;2023-02-12T06:36:58;-2.90;99.90
4279;DHT22;2153;47.744;10.580;2023-02-12T06:39:25;-2.90;99.90
4279;DHT22;2153;47.744;10.580;2023-02-12T06:41:51;-2.90;99.90
4279;DHT22;2153;47.744;10.580;2023-02-12T06:44:18;-2.90;99.90
4279;DHT22;2153;47.744;10.580;2023-02-12T06:46:45;-2.90;99.90
4279;DHT22;2153;47.744;10.580;2023-02-12T06:49:13;-2.90;99.90
4279;DHT22;2153;47.744;10.580;2023-02-12T06:51:41;-2.90;99.90
4279;DHT22;2153;47.744;10.580;2023-02-12T06:54:12;-3.00;99.90
4279;DHT22;2153;47.744;10.580;2023-02-12T06:56:39;-3.00;99.90
4279;DHT22;2153;47.744;10.580;2023-02-12T06:59:06;-2.90;99.90
4279;DHT22;2153;47.744;10.580;2023-02-12T07:01:33;-2.70;99.90
4279;DHT22;2153;47.744;10.580;2023-02-12T07:04:00;-2.40;99.90
4279;DHT22;2153;47.744;10.580;2023-02-12T07:06:30;-2.20;99.90
4279;DHT22;2153;47.744;10.580;2023-02-12T07:08:58;-2.00;99.90
4279;DHT22;2153;47.744;10.580;2023-02-12T07:11:28;-1.80;99.90
4279;DHT22;2153;47.744;10.580;2023-02-12T07:13:55;-1.80;99.90
4279;DHT22;2153;47.744;10.580;2023-02-12T07:16:22;-1.70;99.90
4279;DHT22;2153;47.744;10.580;2023-02-12T07:18:49;-1.70;99.90
4279;DHT22;2153;47.744;10.580;2023-02-12T07:21:16;-1.70;99.90
4279;DHT22;2153;47.744;10.580;2023-02-12T07:23:47;-1.70;99.90
4279;DHT22;2153;47.744;10.580;2023-02-12T07:26:14;-1.50;99.90
4279;DHT22;2153;47.744;10.580;2023-02-12T07:28:42;-0.90;99.90
4279;DHT22;2153;47.744;10.580;2023-02-12T07:31:10;-0.70;99.90
4279;DHT22;2153;47.744;10.580;2023-02-12T07:33:37;-0.30;99.90
4279;DHT22;2153;47.744;10.580;2023-02-12T07:36:07;0.20;99.90
4279;DHT22;2153;47.744;10.580;2023-02-12T07:38:34;0.40;99.90
4279;DHT22;2153;47.744;10.580;2023-02-12T07:41:11;0.50;99.90
4279;DHT22;2153;47.744;10.580;2023-02-12T07:43:39;0.80;99.90
4279;DHT22;2153;47.744;10.580;2023-02-12T07:46:08;1.00;99.90
4279;DHT22;2153;47.744;10.580;2023-02-12T07:48:35;1.00;99.90
4279;DHT22;2153;47.744;10.580;2023-02-12T07:51:03;1.30;99.90
4279;DHT22;2153;47.744;10.580;2023-02-12T07:53:31;1.50;99.90
4279;DHT22;2153;47.744;10.580;2023-02-12T07:56:04;1.80;99.90
4279;DHT22;2153;47.744;10.580;2023-02-12T07:58:33;2.10;99.90
4279;DHT22;2153;47.744;10.580;2023-02-12T08:01:09;2.60;99.90
4279;DHT22;2153;47.744;10.580;2023-02-12T08:03:35;2.80;99.90
4279;DHT22;2153;47.744;10.580;2023-02-12T08:06:06;3.20;99.90
4279;DHT22;2153;47.744;10.580;2023-02-12T08:08:33;3.40;99.90
4279;DHT22;2153;47.744;10.580;2023-02-12T08:11:00;3.60;99.90
4279;DHT22;2153;47.744;10.580;2023-02-12T08:13:27;3.90;99.90
4279;DHT22;2153;47.744;10.580;2023-02-12T08:16:00;4.00;99.90
4279;DHT22;2153;47.744;10.580;2023-02-12T08:18:26;4.30;99.90
4279;DHT22;2153;47.744;10.580;2023-02-12T08:20:53;4.70;99.90
4279;DHT22;2153;47.744;10.580;2023-02-12T08:23:20;4.80;99.90
4279;DHT22;2153;47.744;10.580;2023-02-12T08:25:47;5.00;99.90
4279;DHT22;2153;47.744;10.580;2023-02-12T08:28:13;5.20;99.90
4279;DHT22;2153;47.744;10.580;2023-02-12T08:30:40;5.50;99.90
4279;DHT22;2153;47.744;10.580;2023-02-12T08:33:08;6.10;99.90
4279;DHT22;2153;47.744;10.580;2023-02-12T08:35:35;6.30;99.90
4279;DHT22;2153;47.744;10.580;2023-02-12T08:38:02;6.90;99.90
4279;DHT22;2153;47.744;10.580;2023-02-12T08:40:28;7.40;99.90
4279;DHT22;2153;47.744;10.580;2023-02-12T08:42:55;7.40;99.90
4279;DHT22;2153;47.744;10.580;2023-02-12T08:45:22;7.10;99.90
4279;DHT22;2153;47.744;10.580;2023-02-12T08:47:49;7.70;99.90
4279;DHT22;2153;47.744;10.580;2023-02-12T08:50:17;8.30;99.90
4279;DHT22;2153;47.744;10.580;2023-02-12T08:52:44;8.10;99.90
4279;DHT22;2153;47.744;10.580;2023-02-12T08:55:10;7.50;99.90
4279;DHT22;2153;47.744;10.580;2023-02-12T08:57:37;7.70;99.90
4279;DHT22;2153;47.744;10.580;2023-02-12T09:00:05;8.10;99.90
4279;DHT22;2153;47.744;10.580;2023-02-12T09:02:32;8.50;99.90
4279;DHT22;2153;47.744;10.580;2023-02-12T09:04:59;8.40;99.90
4279;DHT22;2153;47.744;10.580;2023-02-12T09:07:27;7.40;99.90
4279;DHT22;2153;47.744;10.580;2023-02-12T09:09:54;7.60;99.90
4279;DHT22;2153;47.744;10.580;2023-02-12T09:12:21;8.40;99.90
4279;DHT22;2153;47.744;10.580;2023-02-12T09:14:47;8.50;99.90
4279;DHT22;2153;47.744;10.580;2023-02-12T09:17:16;8.00;99.90
4279;DHT22;2153;47.744;10.580;2023-02-12T09:19:43;7.80;99.90
4279;DHT22;2153;47.744;10.580;2023-02-12T09:22:09;7.30;99.90
4279;DHT22;2153;47.744;10.580;2023-02-12T09:24:37;7.50;99.90
4279;DHT22;2153;47.744;10.580;2023-02-12T09:27:04;7.30;99.90
4279;DHT22;2153;47.744;10.580;2023-02-12T09:29:31;7.50;99.90
4279;DHT22;2153;47.744;10.580;2023-02-12T09:31:58;7.90;99.90
4279;DHT22;2153;47.744;10.580;2023-02-12T09:34:27;8.20;99.90
4279;DHT22;2153;47.744;10.580;2023-02-12T09:36:53;8.40;99.90
4279;DHT22;2153;47.744;10.580;2023-02-12T09:39:20;8.60;99.90
4279;DHT22;2153;47.744;10.580;2023-02-12T09:42:25;8.40;99.90
4279;DHT22;2153;47.744;10.580;2023-02-12T09:45:01;8.10;99.90
4279;DHT22;2153;47.744;10.580;2023-02-12T09:47:33;8.40;99.90
4279;DHT22;2153;47.744;10.580;2023-02-12T09:50:23;8.60;99.90
4279;DHT22;2153;47.744;10.580;2023-02-12T09:52:51;8.40;99.90
4279;DHT22;2153;47.744;10.580;2023-02-12T09:55:21;8.70;99.90
4279;DHT22;2153;47.744;10.580;2023-02-12T09:57:51;8.80;99.90
4279;DHT22;2153;47.744;10.580;2023-02-12T10:00:21;9.40;99.90
4279;DHT22;2153;47.744;10.580;2023-02-12T10:02:51;9.20;99.90
4279;DHT22;2153;47.744;10.580;2023-02-12T10:05:22;8.90;99.90
4279;DHT22;2153;47.744;10.580;2023-02-12T10:08:14;9.20;99.90
4279;DHT22;2153;47.744;10.580;2023-02-12T10:10:50;9.10;99.90
4279;DHT22;2153;47.744;10.580;2023-02-12T10:13:28;9.40;99.90
4279;DHT22;2153;47.744;10.580;2023-02-12T10:16:00;9.10;99.90
4279;DHT22;2153;47.744;10.580;2023-02-12T10:18:44;10.20;97.60
4279;DHT22;2153;47.744;10.580;2023-02-12T10:21:21;10.50;99.90
4279;DHT22;2153;47.744;10.580;2023-02-12T10:24:04;10.70;95.90
4279;DHT22;2153;47.744;10.580;2023-02-12T10:26:35;10.00;95.90
4279;DHT22;2153;47.744;10.580;2023-02-12T10:29:11;9.60;99.90
4279;DHT22;2153;47.744;10.580;2023-02-12T10:31:41;9.90;99.90
4279;DHT22;2153;47.744;10.580;2023-02-12T10:34:15;8.80;99.90
4279;DHT22;2153;47.744;10.580;2023-02-12T10:36:44;8.60;99.90
4279;DHT22;2153;47.744;10.580;2023-02-12T10:39:17;8.90;99.90
4279;DHT22;2153;47.744;10.580;2023-02-12T10:41:49;9.10;99.90
4279;DHT22;2153;47.744;10.580;2023-02-12T10:44:19;8.90;99.90
4279;DHT22;2153;47.744;10.580;2023-02-12T10:46:45;8.40;99.90
4279;DHT22;2153;47.744;10.580;2023-02-12T10:49:14;8.70;99.90
4279;DHT22;2153;47.744;10.580;2023-02-12T10:52:04;9.10;99.90
4279;DHT22;2153;47.744;10.580;2023-02-12T10:54:40;9.10;99.90
4279;DHT22;2153;47.744;10.580;2023-02-12T10:57:12;9.20;99.90
4279;DHT22;2153;47.744;10.580;2023-02-12T10:59:42;9.70;99.90
4279;DHT22;2153;47.744;10.580;2023-02-12T11:02:21;9.60;99.90
4279;DHT22;2153;47.744;10.580;2023-02-12T11:04:48;9.80;99.90
4279;DHT22;2153;47.744;10.580;2023-02-12T11:07:15;10.00;99.90
4279;DHT22;2153;47.744;10.580;2023-02-12T11:09:44;9.80;99.90
4279;DHT22;2153;47.744;10.580;2023-02-12T11:12:27;9.30;99.90
4279;DHT22;2153;47.744;10.580;2023-02-12T11:14:59;9.00;99.90
4279;DHT22;2153;47.744;10.580;2023-02-12T11:17:29;9.30;99.90
4279;DHT22;2153;47.744;10.580;2023-02-12T11:20:05;8.60;99.90
4279;DHT22;2153;47.744;10.580;2023-02-12T11:22:35;8.00;99.90
4279;DHT22;2153;47.744;10.580;2023-02-12T11:25:13;8.60;99.90
4279;DHT22;2153;47.744;10.580;2023-02-12T11:27:41;8.60;99.90
4279;DHT22;2153;47.744;10.580;2023-02-12T11:30:17;8.50;99.90
4279;DHT22;2153;47.744;10.580;2023-02-12T11:32:45;8.90;99.90
4279;DHT22;2153;47.744;10.580;2023-02-12T11:35:16;8.40;99.90
4279;DHT22;2153;47.744;10.580;2023-02-12T11:37:49;8.40;99.90
4279;DHT22;2153;47.744;10.580;2023-02-12T11:40:19;8.70;99.90
4279;DHT22;2153;47.744;10.580;2023-02-12T11:42:48;8.80;99.90
4279;DHT22;2153;47.744;10.580;2023-02-12T11:45:19;9.00;99.90
4279;DHT22;2153;47.744;10.580;2023-02-12T11:47:48;9.00;99.90
4279;DHT22;2153;47.744;10.580;2023-02-12T11:50:21;8.70;99.90
4279;DHT22;2153;47.744;10.580;2023-02-12T11:52:52;8.70;99.90
4279;DHT22;2153;47.744;10.580;2023-02-12T11:55:22;8.50;99.90
4279;DHT22;2153;47.744;10.580;2023-02-12T11:57:52;8.70;99.90
4279;DHT22;2153;47.744;10.580;2023-02-12T12:00:24;9.10;99.90
4279;DHT22;2153;47.744;10.580;2023-02-12T12:02:55;9.00;99.90
4279;DHT22;2153;47.744;10.580;2023-02-12T12:05:28;9.20;99.90
4279;DHT22;2153;47.744;10.580;2023-02-12T12:07:58;9.00;99.90
4279;DHT22;2153;47.744;10.580;2023-02-12T12:10:33;8.70;99.90
4279;DHT22;2153;47.744;10.580;2023-02-12T12:13:04;8.70;99.90
4279;DHT22;2153;47.744;10.580;2023-02-12T12:15:38;8.90;99.90
4279;DHT22;2153;47.744;10.580;2023-02-12T12:18:26;8.80;99.90
4279;DHT22;2153;47.744;10.580;2023-02-12T12:21:17;9.10;99.90
4279;DHT22;2153;47.744;10.580;2023-02-12T12:23:50;9.80;99.90
4279;DHT22;2153;47.744;10.580;2023-02-12T12:26:22;10.30;99.90
4279;DHT22;2153;47.744;10.580;2023-02-12T12:28:53;10.70;99.90
4279;DHT22;2153;47.744;10.580;2023-02-12T12:31:26;10.90;99.90
4279;DHT22;2153;47.744;10.580;2023-02-12T12:33:58;10.10;99.90
4279;DHT22;2153;47.744;10.580;2023-02-12T12:39:56;9.20;99.90
4279;DHT22;2153;47.744;10.580;2023-02-12T12:43:00;9.40;99.90
4279;DHT22;2153;47.744;10.580;2023-02-12T12:45:39;9.30;99.90
4279;DHT22;2153;47.744;10.580;2023-02-12T12:48:20;9.50;99.90
4279;DHT22;2153;47.744;10.580;2023-02-12T12:51:02;9.60;99.90
4279;DHT22;2153;47.744;10.580;2023-02-12T12:53:43;9.60;99.90
4279;DHT22;2153;47.744;10.580;2023-02-12T12:56:25;10.20;99.90
4279;DHT22;2153;47.744;10.580;2023-02-12T12:59:14;10.10;99.90
4279;DHT22;2153;47.744;10.580;2023-02-12T13:01:57;10.10;99.90
4279;DHT22;2153;47.744;10.580;2023-02-12T13:04:41;10.10;99.90
4279;DHT22;2153;47.744;10.580;2023-02-12T13:07:18;9.60;99.90
4279;DHT22;2153;47.744;10.580;2023-02-12T13:10:05;9.50;99.90
4279;DHT22;2153;47.744;10.580;2023-02-12T13:12:51;9.50;99.90
4279;DHT22;2153;47.744;10.580;2023-02-12T13:15:30;8.90;99.90
4279;DHT22;2153;47.744;10.580;2023-02-12T13:18:04;8.70;99.90
4279;DHT22;2153;47.744;10.580;2023-02-12T13:20:39;9.20;99.90
4279;DHT22;2153;47.744;10.580;2023-02-12T13:23:14;9.50;99.90
4279;DHT22;2153;47.744;10.580;2023-02-12T13:25:47;9.40;99.90
4279;DHT22;2153;47.744;10.580;2023-02-12T13:28:21;9.40;99.90
4279;DHT22;2153;47.744;10.580;2023-02-12T13:30:51;9.70;99.90
4279;DHT22;2153;47.744;10.580;2023-02-12T13:33:22;9.70;99.90
4279;DHT22;2153;47.744;10.580;2023-02-12T13:35:54;9.90;99.90
4279;DHT22;2153;47.744;10.580;2023-02-12T13:38:26;9.50;99.90
4279;DHT22;2153;47.744;10.580;2023-02-12T13:43:35;9.40;99.90
4279;DHT22;2153;47.744;10.580;2023-02-12T13:46:12;9.60;99.90
4279;DHT22;2153;47.744;10.580;2023-02-12T13:48:49;9.60;99.90
4279;DHT22;2153;47.744;10.580;2023-02-12T13:51:27;9.60;99.90
4279;DHT22;2153;47.744;10.580;2023-02-12T13:54:09;9.60;99.90
4279;DHT22;2153;47.744;10.580;2023-02-12T13:56:41;9.40;99.90
4279;DHT22;2153;47.744;10.580;2023-02-12T13:59:40;9.30;99.90
4279;DHT22;2153;47.744;10.580;2023-02-12T14:05:31;9.40;99.90
4279;DHT22;2153;47.744;10.580;2023-02-12T14:08:02;9.20;99.90
4279;DHT22;2153;47.744;10.580;2023-02-12T14:10:33;9.20;99.90
4279;DHT22;2153;47.744;10.580;2023-02-12T14:13:14;9.20;99.90
4279;DHT22;2153;47.744;10.580;2023-02-12T14:15:43;9.30;99.90
4279;DHT22;2153;47.744;10.580;2023-02-12T14:18:34;9.20;99.90
4279;DHT22;2153;47.744;10.580;2023-02-12T14:27:24;9.10;99.90
4279;DHT22;2153;47.744;10.580;2023-02-12T14:33:09;8.90;99.90
4279;DHT22;2153;47.744;10.580;2023-02-12T14:35:39;8.90;99.90
4279;DHT22;2153;47.744;10.580;2023-02-12T14:41:22;8.90;99.90
4279;DHT22;2153;47.744;10.580;2023-02-12T14:50:00;9.30;99.90
4279;DHT22;2153;47.744;10.580;2023-02-12T14:52:30;9.20;99.90
4279;DHT22;2153;47.744;10.580;2023-02-12T14:54:59;9.00;99.90
4279;DHT22;2153;47.744;10.580;2023-02-12T14:57:29;9.10;99.90
4279;DHT22;2153;47.744;10.580;2023-02-12T14:59:58;8.80;99.90
4279;DHT22;2153;47.744;10.580;2023-02-12T15:02:30;8.70;99.90
4279;DHT22;2153;47.744;10.580;2023-02-12T15:05:02;8.70;99.90
4279;DHT22;2153;47.744;10.580;2023-02-12T15:07:34;8.60;99.90
4279;DHT22;2153;47.744;10.580;2023-02-12T15:10:05;8.50;99.90
4279;DHT22;2153;47.744;10.580;2023-02-12T15:12:38;8.40;99.90
4279;DHT22;2153;47.744;10.580;2023-02-12T15:15:14;8.40;99.90
4279;DHT22;2153;47.744;10.580;2023-02-12T15:17:54;8.30;99.90
4279;DHT22;2153;47.744;10.580;2023-02-12T15:20:24;8.10;99.90
4279;DHT22;2153;47.744;10.580;2023-02-12T15:22:52;8.10;99.90
4279;DHT22;2153;47.744;10.580;2023-02-12T15:25:23;8.10;99.90
4279;DHT22;2153;47.744;10.580;2023-02-12T15:27:54;8.10;99.90
4279;DHT22;2153;47.744;10.580;2023-02-12T15:30:23;7.90;99.90
4279;DHT22;2153;47.744;10.580;2023-02-12T15:32:53;7.80;99.90
4279;DHT22;2153;47.744;10.580;2023-02-12T15:35:24;7.80;99.90
4279;DHT22;2153;47.744;10.580;2023-02-12T15:37:52;7.60;99.90
4279;DHT22;2153;47.744;10.580;2023-02-12T15:40:19;7.60;99.90
4279;DHT22;2153;47.744;10.580;2023-02-12T15:42:52;7.70;99.90
4279;DHT22;2153;47.744;10.580;2023-02-12T15:45:22;7.70;99.90
4279;DHT22;2153;47.744;10.580;2023-02-12T15:48:00;7.50;99.90
4279;DHT22;2153;47.744;10.580;2023-02-12T15:50:29;7.50;99.90
4279;DHT22;2153;47.744;10.580;2023-02-12T15:52:57;7.40;99.90
4279;DHT22;2153;47.744;10.580;2023-02-12T15:55:25;7.40;99.90
4279;DHT22;2153;47.744;10.580;2023-02-12T15:57:55;7.20;99.90
4279;DHT22;2153;47.744;10.580;2023-02-12T16:00:28;7.10;99.90
4279;DHT22;2153;47.744;10.580;2023-02-12T16:02:55;7.10;99.90
4279;DHT22;2153;47.744;10.580;2023-02-12T16:05:24;7.00;99.90
4279;DHT22;2153;47.744;10.580;2023-02-12T16:07:52;7.00;99.90
4279;DHT22;2153;47.744;10.580;2023-02-12T16:10:19;6.80;99.90
4279;DHT22;2153;47.744;10.580;2023-02-12T16:12:47;6.80;99.90
4279;DHT22;2153;47.744;10.580;2023-02-12T16:15:27;6.70;99.90
4279;DHT22;2153;47.744;10.580;2023-02-12T16:17:55;6.60;99.90
4279;DHT22;2153;47.744;10.580;2023-02-12T16:20:26;6.50;99.90
4279;DHT22;2153;47.744;10.580;2023-02-12T16:22:54;6.40;99.90
4279;DHT22;2153;47.744;10.580;2023-02-12T16:25:22;6.30;99.90
4279;DHT22;2153;47.744;10.580;2023-02-12T16:27:59;6.30;99.90
4279;DHT22;2153;47.744;10.580;2023-02-12T16:30:28;6.20;99.90
4279;DHT22;2153;47.744;10.580;2023-02-12T16:32:55;6.20;99.90
4279;DHT22;2153;47.744;10.580;2023-02-12T16:35:29;6.10;99.90
4279;DHT22;2153;47.744;10.580;2023-02-12T16:38:00;6.00;99.90
4279;DHT22;2153;47.744;10.580;2023-02-12T16:40:35;5.80;99.90
4279;DHT22;2153;47.744;10.580;2023-02-12T16:43:23;5.80;99.90
4279;DHT22;2153;47.744;10.580;2023-02-12T16:45:51;5.80;99.90
4279;DHT22;2153;47.744;10.580;2023-02-12T16:48:27;5.70;99.90